Time;durP1;ratioP1;P1;durP2;ratioP2;P2;SDS_P1;SDS_P2;PMS_P1;PMS_P2;Temp;Humidity;BMP_temperature;BMP_pressure;BME280_temperature;BME280_humidity;BME280_pressure;Samples;Min_cycle;Max_cycle;Signal;HPM_P1;HPM_P2
2023/05/26 00:01:15;;;;;;;5.20;3.93;;;;;;;;;;4958068;28;20446;-69
2023/05/26 00:03:44;;;;;;;4.67;4.17;;;;;;;;;;4959739;28;20456;-70
2023/05/26 00:06:13;;;;;;;4.60;3.53;;;;;;;;;;4962254;28;20922;-69
2023/05/26 00:08:39;;;;;;;4.30;3.43;;;;;;;;;;4962802;28;20438;-68
2023/05/26 00:11:06;;;;;;;3.90;3.60;;;;;;;;;;4963059;28;20484;-69
2023/05/26 00:13:32;;;;;;;5.50;3.77;;;;;;;;;;4962883;28;20446;-69
2023/05/26 00:15:58;;;;;;;2.23;2.23;;;;;;;;;;4963183;28;20481;-69
2023/05/26 00:18:27;;;;;;;4.13;3.47;;;;;;;;;;4961283;28;20603;-69
2023/05/26 00:20:56;;;;;;;5.70;3.40;;;;;;;;;;4958509;28;20568;-68
2023/05/26 00:23:22;;;;;;;3.70;3.50;;;;;;;;;;4958097;28;20573;-69
2023/05/26 00:25:51;;;;;;;4.57;3.67;;;;;;;;;;4958053;28;20446;-69
2023/05/26 00:28:17;;;;;;;5.20;3.80;;;;;;;;;;4958045;28;20480;-68
2023/05/26 00:30:43;;;;;;;8.53;4.80;;;;;;;;;;4958945;28;20473;-69
2023/05/26 00:33:09;;;;;;;7.00;3.53;;;;;;;;;;4957333;28;20464;-69
2023/05/26 00:35:35;;;;;;;4.30;4.00;;;;;;;;;;4958448;28;20446;-68
2023/05/26 00:38:01;;;;;;;5.00;4.50;;;;;;;;;;4958387;28;20422;-69
2023/05/26 00:40:26;;;;;;;9.03;3.13;;;;;;;;;;4957527;28;21733;-69
2023/05/26 00:42:52;;;;;;;2.73;2.63;;;;;;;;;;4960584;28;20827;-69
2023/05/26 00:45:18;;;;;;;5.20;4.43;;;;;;;;;;4961358;28;20521;-70
2023/05/26 00:47:44;;;;;;;4.57;4.17;;;;;;;;;;4960824;28;20469;-69
2023/05/26 00:50:12;;;;;;;3.13;2.93;;;;;;;;;;4960110;28;20446;-68
2023/05/26 00:52:40;;;;;;;2.70;2.50;;;;;;;;;;4960341;28;20481;-69
2023/05/26 00:55:06;;;;;;;3.00;2.80;;;;;;;;;;4961137;28;20474;-69
2023/05/26 00:57:33;;;;;;;10.80;4.90;;;;;;;;;;4961400;28;20489;-69
2023/05/26 00:59:59;;;;;;;7.00;4.27;;;;;;;;;;4961521;28;20942;-69
2023/05/26 01:02:26;;;;;;;6.70;3.80;;;;;;;;;;4960901;28;20540;-69
2023/05/26 01:04:53;;;;;;;8.53;4.40;;;;;;;;;;4960875;28;20509;-69
2023/05/26 01:07:20;;;;;;;4.30;4.00;;;;;;;;;;4961273;28;20458;-69
2023/05/26 01:09:46;;;;;;;4.03;3.83;;;;;;;;;;4960990;28;20450;-69
2023/05/26 01:12:15;;;;;;;4.40;4.10;;;;;;;;;;4960821;28;20494;-69
2023/05/26 01:14:47;;;;;;;4.47;4.07;;;;;;;;;;4961009;28;20516;-68
2023/05/26 01:17:21;;;;;;;4.10;3.73;;;;;;;;;;4960440;28;20481;-69
2023/05/26 01:19:47;;;;;;;8.43;4.40;;;;;;;;;;4959343;28;20440;-69
2023/05/26 01:22:20;;;;;;;5.10;4.80;;;;;;;;;;4959998;28;20443;-69
2023/05/26 01:24:55;;;;;;;5.23;3.57;;;;;;;;;;4960787;28;20245;-69
2023/05/26 01:27:32;;;;;;;6.93;4.60;;;;;;;;;;4960804;28;20465;-69
2023/05/26 01:29:58;;;;;;;4.83;4.53;;;;;;;;;;4960574;28;20792;-69
2023/05/26 01:32:25;;;;;;;4.20;4.10;;;;;;;;;;4960531;28;20516;-69
2023/05/26 01:34:51;;;;;;;4.90;4.40;;;;;;;;;;4960206;28;20443;-68
2023/05/26 01:37:17;;;;;;;9.20;3.53;;;;;;;;;;4958929;28;20463;-69
2023/05/26 01:39:43;;;;;;;6.73;4.90;;;;;;;;;;4960237;28;20463;-68
2023/05/26 01:42:19;;;;;;;5.00;4.60;;;;;;;;;;4960648;28;20456;-69
2023/05/26 01:45:05;;;;;;;6.83;4.47;;;;;;;;;;4960171;28;20548;-69
2023/05/26 01:47:32;;;;;;;4.70;4.13;;;;;;;;;;4960387;28;20489;-69
2023/05/26 01:50:00;;;;;;;3.40;3.20;;;;;;;;;;4960221;28;20951;-69
2023/05/26 01:52:27;;;;;;;4.93;4.00;;;;;;;;;;4959143;28;20492;-69
2023/05/26 01:54:56;;;;;;;4.50;4.03;;;;;;;;;;4960362;28;20445;-69
2023/05/26 01:57:23;;;;;;;5.23;4.73;;;;;;;;;;4960184;28;20528;-69
2023/05/26 01:59:49;;;;;;;5.60;3.97;;;;;;;;;;4959558;28;20451;-69
2023/05/26 02:02:15;;;;;;;5.30;4.80;;;;;;;;;;4959135;28;20434;-69
2023/05/26 02:04:41;;;;;;;7.37;5.47;;;;;;;;;;4960490;28;20438;-69
2023/05/26 02:07:07;;;;;;;7.07;5.00;;;;;;;;;;4959426;28;20782;-69
2023/05/26 02:09:33;;;;;;;3.87;3.63;;;;;;;;;;4960311;28;20489;-68
2023/05/26 02:11:59;;;;;;;5.00;4.47;;;;;;;;;;4959414;28;20494;-68
2023/05/26 02:14:25;;;;;;;9.80;5.47;;;;;;;;;;4959995;28;20970;-69
2023/05/26 02:16:51;;;;;;;3.97;3.73;;;;;;;;;;4959565;28;20469;-69
2023/05/26 02:19:17;;;;;;;11.10;5.20;;;;;;;;;;4959530;28;20447;-69
2023/05/26 02:21:43;;;;;;;5.43;4.90;;;;;;;;;;4959654;28;20439;-69
2023/05/26 02:24:09;;;;;;;10.87;5.13;;;;;;;;;;4959693;28;20444;-69
2023/05/26 02:26:35;;;;;;;5.10;4.10;;;;;;;;;;4959568;28;20504;-68
2023/05/26 02:29:01;;;;;;;4.23;3.93;;;;;;;;;;4959495;28;20433;-68
2023/05/26 02:31:28;;;;;;;5.63;4.40;;;;;;;;;;4959562;28;20512;-69
2023/05/26 02:33:54;;;;;;;5.17;4.27;;;;;;;;;;4958811;28;20453;-69
2023/05/26 02:36:20;;;;;;;5.23;4.70;;;;;;;;;;4959724;28;20426;-68
2023/05/26 02:38:46;;;;;;;8.23;4.70;;;;;;;;;;4959699;28;20505;-68
2023/05/26 02:41:12;;;;;;;4.93;4.73;;;;;;;;;;4958576;28;20928;-69
2023/05/26 02:43:39;;;;;;;4.53;4.20;;;;;;;;;;4959425;28;20458;-68
2023/05/26 02:46:05;;;;;;;6.67;4.07;;;;;;;;;;4958641;28;20473;-68
2023/05/26 02:48:31;;;;;;;14.47;4.87;;;;;;;;;;4958681;28;20469;-69
2023/05/26 02:50:59;;;;;;;10.77;4.80;;;;;;;;;;4959154;28;20450;-69
2023/05/26 02:53:25;;;;;;;8.17;4.20;;;;;;;;;;4959194;28;20186;-69
2023/05/26 02:55:51;;;;;;;4.23;3.80;;;;;;;;;;4959688;28;20493;-69
2023/05/26 02:58:17;;;;;;;6.83;4.83;;;;;;;;;;4958761;28;20442;-68
2023/05/26 03:00:43;;;;;;;9.37;4.33;;;;;;;;;;4958520;28;20998;-69
2023/05/26 03:03:09;;;;;;;4.20;4.00;;;;;;;;;;4958773;28;20785;-69
2023/05/26 03:05:36;;;;;;;4.83;4.30;;;;;;;;;;4958706;28;20814;-69
2023/05/26 03:08:03;;;;;;;12.97;5.43;;;;;;;;;;4958670;28;20446;-69
2023/05/26 03:10:29;;;;;;;13.63;4.67;;;;;;;;;;4956630;28;20430;-69
2023/05/26 03:12:55;;;;;;;4.70;4.40;;;;;;;;;;4957770;28;20485;-68
2023/05/26 03:15:22;;;;;;;4.27;4.07;;;;;;;;;;4959457;28;20443;-69
2023/05/26 03:17:50;;;;;;;4.90;4.60;;;;;;;;;;4957855;28;20717;-69
2023/05/26 03:20:16;;;;;;;6.13;4.60;;;;;;;;;;4957268;28;20556;-69
2023/05/26 03:22:42;;;;;;;9.53;4.10;;;;;;;;;;4956221;28;20578;-68
2023/05/26 03:25:09;;;;;;;4.33;3.97;;;;;;;;;;4957638;28;20481;-69
2023/05/26 03:27:39;;;;;;;4.93;4.47;;;;;;;;;;4957446;28;20438;-69
2023/05/26 03:30:05;;;;;;;4.40;4.00;;;;;;;;;;4957649;28;20965;-69
2023/05/26 03:32:31;;;;;;;7.80;4.23;;;;;;;;;;4957641;28;20491;-69
2023/05/26 03:34:57;;;;;;;4.53;3.87;;;;;;;;;;4958082;28;20438;-68
2023/05/26 03:37:23;;;;;;;5.90;4.40;;;;;;;;;;4958795;28;20537;-69
2023/05/26 03:39:49;;;;;;;5.00;4.60;;;;;;;;;;4958633;28;20493;-68
2023/05/26 03:42:15;;;;;;;4.50;4.30;;;;;;;;;;4958580;28;20450;-69
2023/05/26 03:44:41;;;;;;;4.40;4.00;;;;;;;;;;4958360;28;20457;-68
2023/05/26 03:47:07;;;;;;;6.30;5.40;;;;;;;;;;4958501;28;20473;-68
2023/05/26 03:49:33;;;;;;;4.67;4.20;;;;;;;;;;4957747;28;20437;-68
2023/05/26 03:51:59;;;;;;;8.20;7.40;;;;;;;;;;4958256;28;20482;-68
2023/05/26 03:54:25;;;;;;;6.03;4.13;;;;;;;;;;4958371;28;20814;-69
2023/05/26 03:56:50;;;;;;;6.13;4.67;;;;;;;;;;4958753;28;20438;-68
2023/05/26 03:59:17;;;;;;;5.97;4.80;;;;;;;;;;4958285;28;20442;-68
2023/05/26 04:01:43;;;;;;;4.87;4.30;;;;;;;;;;4958154;28;21184;-69
2023/05/26 04:04:09;;;;;;;4.53;4.13;;;;;;;;;;4958170;28;20434;-69
2023/05/26 04:06:35;;;;;;;4.40;4.17;;;;;;;;;;4958589;28;20589;-68
2023/05/26 04:09:03;;;;;;;3.87;3.57;;;;;;;;;;4959551;28;20453;-68
2023/05/26 04:11:29;;;;;;;4.43;4.13;;;;;;;;;;4957852;28;20489;-68
2023/05/26 04:13:55;;;;;;;5.70;4.93;;;;;;;;;;4957912;28;20450;-69
2023/05/26 04:16:21;;;;;;;6.50;3.90;;;;;;;;;;4959470;28;20434;-69
2023/05/26 04:18:47;;;;;;;6.67;4.67;;;;;;;;;;4961598;28;20509;-69
2023/05/26 04:21:13;;;;;;;4.77;4.30;;;;;;;;;;4962210;28;21103;-69
2023/05/26 04:23:39;;;;;;;4.20;3.77;;;;;;;;;;4961999;28;20422;-69
2023/05/26 04:26:06;;;;;;;5.00;4.60;;;;;;;;;;4961797;28;20423;-68
2023/05/26 04:28:33;;;;;;;4.87;4.50;;;;;;;;;;4962621;28;20434;-69
2023/05/26 04:31:01;;;;;;;3.90;3.57;;;;;;;;;;4960401;28;20549;-69
2023/05/26 04:33:27;;;;;;;10.87;4.40;;;;;;;;;;4961150;28;20529;-69
2023/05/26 04:35:54;;;;;;;5.23;4.93;;;;;;;;;;4961820;28;20457;-69
2023/05/26 04:38:20;;;;;;;5.10;4.60;;;;;;;;;;4961678;28;20445;-69
2023/05/26 04:40:46;;;;;;;5.80;3.90;;;;;;;;;;4961498;28;20859;-68
2023/05/26 04:43:14;;;;;;;5.30;4.13;;;;;;;;;;4961754;28;20807;-69
2023/05/26 04:45:43;;;;;;;8.63;5.20;;;;;;;;;;4961292;28;20438;-68
2023/05/26 04:48:09;;;;;;;4.40;4.00;;;;;;;;;;4961553;28;20441;-68
2023/05/26 04:50:38;;;;;;;5.63;4.27;;;;;;;;;;4961039;28;20843;-69
2023/05/26 04:53:07;;;;;;;4.03;3.83;;;;;;;;;;4961317;28;20431;-69
2023/05/26 04:55:35;;;;;;;4.00;3.90;;;;;;;;;;4961406;28;20504;-68
2023/05/26 04:58:02;;;;;;;10.63;5.30;;;;;;;;;;4961631;28;20438;-69
2023/05/26 05:00:31;;;;;;;4.63;4.17;;;;;;;;;;4960665;28;20919;-68
2023/05/26 05:02:57;;;;;;;5.23;4.33;;;;;;;;;;4960315;28;20913;-68
2023/05/26 05:05:23;;;;;;;3.67;3.13;;;;;;;;;;4961051;28;20437;-69
2023/05/26 05:07:50;;;;;;;4.67;4.30;;;;;;;;;;4960707;28;20430;-69
2023/05/26 05:10:16;;;;;;;6.53;4.43;;;;;;;;;;4960907;28;20469;-69
2023/05/26 05:12:43;;;;;;;4.97;4.57;;;;;;;;;;4960770;28;20492;-69
2023/05/26 05:15:10;;;;;;;5.73;4.37;;;;;;;;;;4961203;28;20521;-70
2023/05/26 05:17:36;;;;;;;4.67;4.03;;;;;;;;;;4960230;28;21917;-70
2023/05/26 05:20:02;;;;;;;4.30;3.70;;;;;;;;;;4960982;28;20442;-70
2023/05/26 05:22:28;;;;;;;4.63;4.30;;;;;;;;;;4960343;28;20702;-70
2023/05/26 05:24:54;;;;;;;5.27;4.77;;;;;;;;;;4960793;28;20437;-70
2023/05/26 05:27:20;;;;;;;10.57;5.80;;;;;;;;;;4960552;28;20526;-70
2023/05/26 05:29:46;;;;;;;8.20;4.03;;;;;;;;;;4958808;28;20434;-70
2023/05/26 05:32:12;;;;;;;5.33;4.27;;;;;;;;;;4955487;28;20497;-69
2023/05/26 05:34:38;;;;;;;6.10;4.40;;;;;;;;;;4957526;28;20431;-68
2023/05/26 05:37:04;;;;;;;4.83;4.27;;;;;;;;;;4959947;28;20492;-68
2023/05/26 05:39:30;;;;;;;7.30;4.37;;;;;;;;;;4958584;28;20442;-70
2023/05/26 05:41:56;;;;;;;7.63;5.23;;;;;;;;;;4959114;28;21166;-70
2023/05/26 05:44:22;;;;;;;5.47;4.60;;;;;;;;;;4960289;28;20775;-69
2023/05/26 05:46:48;;;;;;;5.47;4.83;;;;;;;;;;4960114;28;20463;-69
2023/05/26 05:49:13;;;;;;;4.20;3.90;;;;;;;;;;4958911;28;20426;-69
2023/05/26 05:51:39;;;;;;;7.20;4.77;;;;;;;;;;4957994;28;20489;-70
2023/05/26 05:54:05;;;;;;;6.10;4.70;;;;;;;;;;4959796;28;20430;-69
2023/05/26 05:56:31;;;;;;;8.73;5.10;;;;;;;;;;4959812;28;20475;-69
2023/05/26 05:58:57;;;;;;;18.77;5.30;;;;;;;;;;4959696;28;20446;-69
2023/05/26 06:01:23;;;;;;;6.37;4.60;;;;;;;;;;4959241;28;20484;-69
2023/05/26 06:03:49;;;;;;;6.47;4.00;;;;;;;;;;4958695;28;20496;-71
2023/05/26 06:06:16;;;;;;;5.00;4.60;;;;;;;;;;4955772;28;20450;-70
2023/05/26 06:08:42;;;;;;;4.73;4.07;;;;;;;;;;4958354;28;21021;-70
2023/05/26 06:11:08;;;;;;;5.50;4.53;;;;;;;;;;4958014;28;20480;-70
2023/05/26 06:13:34;;;;;;;4.93;4.53;;;;;;;;;;4959128;28;20967;-70
2023/05/26 06:16:00;;;;;;;7.32;5.25;;;;;;;;;;4958518;28;20434;-70
2023/05/26 06:18:26;;;;;;;5.77;5.37;;;;;;;;;;4958677;28;20796;-70
2023/05/26 06:20:52;;;;;;;4.37;4.07;;;;;;;;;;4959548;28;20521;-69
2023/05/26 06:23:18;;;;;;;5.83;5.23;;;;;;;;;;4955109;28;20442;-69
2023/05/26 06:25:44;;;;;;;5.70;5.20;;;;;;;;;;4958661;28;20473;-68
2023/05/26 06:28:10;;;;;;;6.20;5.70;;;;;;;;;;4958679;28;20529;-69
2023/05/26 06:30:36;;;;;;;7.80;4.60;;;;;;;;;;4959154;28;20445;-69
2023/05/26 06:33:02;;;;;;;7.57;5.30;;;;;;;;;;4958408;28;20878;-70
2023/05/26 06:35:28;;;;;;;6.17;5.63;;;;;;;;;;4959489;28;20512;-70
2023/05/26 06:37:54;;;;;;;8.60;5.87;;;;;;;;;;4958555;28;20512;-69
2023/05/26 06:40:20;;;;;;;7.13;4.80;;;;;;;;;;4958571;28;20454;-69
2023/05/26 06:42:45;;;;;;;6.97;5.47;;;;;;;;;;4957967;28;20438;-70
2023/05/26 06:45:11;;;;;;;6.57;6.07;;;;;;;;;;4958911;28;20491;-70
2023/05/26 06:47:37;;;;;;;11.10;5.50;;;;;;;;;;4956856;28;20430;-69
2023/05/26 06:50:03;;;;;;;7.40;5.27;;;;;;;;;;4957792;28;20440;-69
2023/05/26 06:52:29;;;;;;;6.90;5.13;;;;;;;;;;4958199;28;20551;-69
2023/05/26 06:54:55;;;;;;;5.30;4.80;;;;;;;;;;4957903;28;20449;-69
2023/05/26 06:57:21;;;;;;;6.00;5.50;;;;;;;;;;4958570;28;20462;-69
2023/05/26 06:59:47;;;;;;;5.80;5.30;;;;;;;;;;4958895;28;20965;-69
2023/05/26 07:02:13;;;;;;;6.60;6.00;;;;;;;;;;4957405;28;21013;-70
2023/05/26 07:04:39;;;;;;;12.50;6.07;;;;;;;;;;4959119;28;20919;-69
2023/05/26 07:07:05;;;;;;;5.70;5.20;;;;;;;;;;4958537;28;20445;-70
2023/05/26 07:09:31;;;;;;;8.20;6.10;;;;;;;;;;4958667;28;20969;-69
2023/05/26 07:11:57;;;;;;;6.17;5.77;;;;;;;;;;4955558;28;21050;-69
2023/05/26 07:14:23;;;;;;;8.13;5.43;;;;;;;;;;4958215;28;20441;-69
2023/05/26 07:16:49;;;;;;;6.17;5.53;;;;;;;;;;4958390;28;20529;-70
2023/05/26 07:19:15;;;;;;;6.87;5.97;;;;;;;;;;4958194;28;20930;-70
2023/05/26 07:21:41;;;;;;;7.77;5.73;;;;;;;;;;4958914;28;20537;-70
2023/05/26 07:24:07;;;;;;;8.43;5.10;;;;;;;;;;4962130;28;20533;-69
2023/05/26 07:26:33;;;;;;;6.33;5.47;;;;;;;;;;4964145;28;20454;-69
2023/05/26 07:28:59;;;;;;;9.87;5.87;;;;;;;;;;4963283;28;20517;-70
2023/05/26 07:31:25;;;;;;;6.43;5.83;;;;;;;;;;4963508;28;20993;-70
2023/05/26 07:33:52;;;;;;;5.37;4.90;;;;;;;;;;4957958;28;20960;-70
2023/05/26 07:36:18;;;;;;;5.13;4.60;;;;;;;;;;4963391;28;20489;-70
2023/05/26 07:38:45;;;;;;;7.93;5.80;;;;;;;;;;4962072;28;20950;-70
2023/05/26 07:41:11;;;;;;;6.80;5.30;;;;;;;;;;4962686;28;20972;-69
2023/05/26 07:43:36;;;;;;;7.23;5.00;;;;;;;;;;4963157;28;20422;-70
2023/05/26 07:46:02;;;;;;;11.03;4.87;;;;;;;;;;4962672;28;20953;-70
2023/05/26 07:48:28;;;;;;;10.53;5.77;;;;;;;;;;4957819;28;20519;-70
2023/05/26 07:50:55;;;;;;;8.43;5.83;;;;;;;;;;4954191;28;20456;-70
2023/05/26 07:53:21;;;;;;;8.20;5.13;;;;;;;;;;4960886;28;20972;-70
2023/05/26 07:55:47;;;;;;;5.77;5.37;;;;;;;;;;4951514;28;20446;-70
2023/05/26 07:58:13;;;;;;;6.30;5.70;;;;;;;;;;4957334;28;20472;-70
2023/05/26 08:00:39;;;;;;;7.63;5.60;;;;;;;;;;4963860;28;20452;-65
2023/05/26 08:03:05;;;;;;;7.80;4.70;;;;;;;;;;4965955;28;20442;-70
2023/05/26 08:05:31;;;;;;;5.73;5.43;;;;;;;;;;4966878;28;20966;-70
2023/05/26 08:07:57;;;;;;;6.50;5.90;;;;;;;;;;4966293;28;20878;-70
2023/05/26 08:10:24;;;;;;;19.87;6.37;;;;;;;;;;4961023;28;20946;-70
2023/05/26 08:12:51;;;;;;;9.37;5.10;;;;;;;;;;4965323;28;21005;-70
2023/05/26 08:15:17;;;;;;;6.83;6.10;;;;;;;;;;4966719;28;20796;-70
2023/05/26 08:17:43;;;;;;;5.77;5.23;;;;;;;;;;4965778;28;20484;-70
2023/05/26 08:20:10;;;;;;;8.63;5.77;;;;;;;;;;4966829;28;21639;-69
2023/05/26 08:22:37;;;;;;;5.40;4.97;;;;;;;;;;4965913;28;20937;-70
2023/05/26 08:25:03;;;;;;;6.33;5.73;;;;;;;;;;4966362;28;20430;-70
2023/05/26 08:27:29;;;;;;;15.87;7.70;;;;;;;;;;4966075;28;20425;-71
2023/05/26 08:29:55;;;;;;;5.20;4.90;;;;;;;;;;4966534;28;20525;-71
2023/05/26 08:32:21;;;;;;;5.47;4.97;;;;;;;;;;4965434;28;20482;-70
2023/05/26 08:34:47;;;;;;;12.60;6.10;;;;;;;;;;4966413;28;20418;-71
2023/05/26 08:37:14;;;;;;;8.20;4.90;;;;;;;;;;4966069;28;20934;-71
2023/05/26 08:39:40;;;;;;;12.30;5.43;;;;;;;;;;4964910;28;20445;-70
2023/05/26 08:42:07;;;;;;;9.07;6.07;;;;;;;;;;4965873;28;20461;-70
2023/05/26 08:44:36;;;;;;;5.67;4.67;;;;;;;;;;4966241;28;20513;-71
2023/05/26 08:47:03;;;;;;;10.63;6.00;;;;;;;;;;4965495;28;20926;-69
2023/05/26 08:49:36;;;;;;;13.30;6.80;;;;;;;;;;4965490;28;20418;-70
2023/05/26 08:52:22;;;;;;;6.00;5.43;;;;;;;;;;4965571;28;20489;-70
2023/05/26 08:54:49;;;;;;;7.50;5.50;;;;;;;;;;4960566;28;20848;-70
2023/05/26 08:57:16;;;;;;;5.80;5.40;;;;;;;;;;4965936;28;20959;-70
2023/05/26 08:59:43;;;;;;;7.60;5.70;;;;;;;;;;4966079;28;21016;-70
2023/05/26 09:02:09;;;;;;;9.27;5.63;;;;;;;;;;4964439;28;20426;-70
2023/05/26 09:04:35;;;;;;;6.27;4.40;;;;;;;;;;4966085;28;21659;-69
2023/05/26 09:07:01;;;;;;;9.13;6.20;;;;;;;;;;4965578;28;21670;-69
2023/05/26 09:09:27;;;;;;;5.63;5.30;;;;;;;;;;4965523;28;20425;-69
2023/05/26 09:11:54;;;;;;;7.27;5.20;;;;;;;;;;4965167;28;20482;-70
2023/05/26 09:14:22;;;;;;;10.77;5.37;;;;;;;;;;4965636;28;20517;-70
2023/05/26 09:16:48;;;;;;;9.00;6.27;;;;;;;;;;4965104;28;20481;-69
2023/05/26 09:19:15;;;;;;;6.23;4.97;;;;;;;;;;4965499;28;20662;-70
2023/05/26 09:21:50;;;;;;;6.60;5.40;;;;;;;;;;4965078;28;20430;-71
2023/05/26 09:24:17;;;;;;;10.60;7.07;;;;;;;;;;4959334;28;20437;-69
2023/05/26 09:26:44;;;;;;;5.63;5.13;;;;;;;;;;4964005;28;21186;-70
2023/05/26 09:29:10;;;;;;;14.80;4.63;;;;;;;;;;4964993;28;20927;-70
2023/05/26 09:31:38;;;;;;;16.47;6.50;;;;;;;;;;4963765;28;20482;-70
2023/05/26 09:34:04;;;;;;;7.03;5.57;;;;;;;;;;4965238;28;20496;-71
2023/05/26 09:36:33;;;;;;;5.60;5.10;;;;;;;;;;4965659;28;20946;-70
2023/05/26 09:39:00;;;;;;;9.00;4.07;;;;;;;;;;4963898;28;20562;-70
2023/05/26 09:41:36;;;;;;;6.87;4.43;;;;;;;;;;4964949;28;20429;-69
2023/05/26 09:44:09;;;;;;;5.70;5.10;;;;;;;;;;4964871;28;20429;-70
2023/05/26 09:46:36;;;;;;;5.83;5.33;;;;;;;;;;4961204;28;20448;-69
2023/05/26 09:49:03;;;;;;;18.23;5.57;;;;;;;;;;4963852;28;20441;-70
2023/05/26 09:51:31;;;;;;;6.90;4.93;;;;;;;;;;4963347;28;20480;-70
2023/05/26 09:53:57;;;;;;;6.40;4.87;;;;;;;;;;4964202;28;20473;-70
2023/05/26 09:56:26;;;;;;;11.40;5.50;;;;;;;;;;4962811;28;20909;-71
2023/05/26 09:58:54;;;;;;;9.20;5.33;;;;;;;;;;4964470;28;20430;-70
2023/05/26 10:01:20;;;;;;;6.67;4.43;;;;;;;;;;4963771;28;20452;-70
2023/05/26 10:03:46;;;;;;;4.80;4.43;;;;;;;;;;4961859;28;20446;-71
2023/05/26 10:06:13;;;;;;;7.00;5.90;;;;;;;;;;4963582;28;20450;-70
2023/05/26 10:08:40;;;;;;;9.03;5.90;;;;;;;;;;4958181;28;21008;-70
2023/05/26 10:11:06;;;;;;;12.13;5.37;;;;;;;;;;4959197;28;20982;-69
2023/05/26 10:13:33;;;;;;;6.47;4.50;;;;;;;;;;4954717;28;21017;-70
2023/05/26 10:15:59;;;;;;;4.97;3.70;;;;;;;;;;4959226;28;20429;-70
2023/05/26 10:18:25;;;;;;;6.07;4.80;;;;;;;;;;4960657;28;20544;-70
2023/05/26 10:20:52;;;;;;;7.67;5.47;;;;;;;;;;4964543;28;20807;-70
2023/05/26 10:23:25;;;;;;;6.20;4.70;;;;;;;;;;4963672;28;20429;-70
2023/05/26 10:25:54;;;;;;;5.77;5.37;;;;;;;;;;4963059;28;20453;-69
2023/05/26 10:28:24;;;;;;;6.67;5.57;;;;;;;;;;4956455;28;20505;-70
2023/05/26 10:30:57;;;;;;;7.60;5.13;;;;;;;;;;4963415;28;21659;-70
2023/05/26 10:33:36;;;;;;;8.10;5.20;;;;;;;;;;4959910;28;20442;-71
2023/05/26 10:36:06;;;;;;;5.60;5.30;;;;;;;;;;4958936;28;20524;-70
2023/05/26 10:38:36;;;;;;;5.57;4.97;;;;;;;;;;4958825;28;20526;-71
2023/05/26 10:41:03;;;;;;;4.13;3.93;;;;;;;;;;4960679;28;20996;-71
2023/05/26 10:43:29;;;;;;;5.77;4.77;;;;;;;;;;4960160;28;20454;-70
2023/05/26 10:45:57;;;;;;;5.67;5.13;;;;;;;;;;4963508;28;20972;-70
2023/05/26 10:48:34;;;;;;;11.60;4.13;;;;;;;;;;4961146;28;20485;-70
2023/05/26 10:51:00;;;;;;;15.37;5.60;;;;;;;;;;4957650;28;20985;-70
2023/05/26 10:53:30;;;;;;;4.70;4.30;;;;;;;;;;4958251;28;20668;-70
2023/05/26 10:56:02;;;;;;;5.40;4.97;;;;;;;;;;4961099;28;20453;-70
2023/05/26 10:58:34;;;;;;;13.83;5.90;;;;;;;;;;4957624;28;20453;-70
2023/05/26 11:01:03;;;;;;;7.37;5.10;;;;;;;;;;4957362;28;20487;-70
2023/05/26 11:03:40;;;;;;;6.53;4.97;;;;;;;;;;4959417;28;20453;-70
2023/05/26 11:06:07;;;;;;;13.73;5.30;;;;;;;;;;4955250;28;20708;-70
2023/05/26 11:08:37;;;;;;;13.67;5.20;;;;;;;;;;4959237;28;20446;-70
2023/05/26 11:11:04;;;;;;;8.93;5.63;;;;;;;;;;4955651;28;20464;-70
2023/05/26 11:13:45;;;;;;;14.47;5.33;;;;;;;;;;4958034;28;20987;-71
2023/05/26 11:16:19;;;;;;;9.70;4.80;;;;;;;;;;4957176;28;20473;-70
2023/05/26 11:18:49;;;;;;;5.37;4.93;;;;;;;;;;4956598;28;21025;-71
2023/05/26 11:21:15;;;;;;;11.47;5.80;;;;;;;;;;4957828;28;20588;-71
2023/05/26 11:23:41;;;;;;;9.73;4.90;;;;;;;;;;4956923;28;20445;-70
2023/05/26 11:26:14;;;;;;;6.23;5.07;;;;;;;;;;4956197;28;20810;-70
2023/05/26 11:28:44;;;;;;;11.37;5.50;;;;;;;;;;4957311;28;20450;-70
2023/05/26 11:31:14;;;;;;;6.50;5.50;;;;;;;;;;4957812;28;20473;-70
2023/05/26 11:33:41;;;;;;;10.93;5.00;;;;;;;;;;4957994;28;20477;-70
2023/05/26 11:36:08;;;;;;;8.30;5.20;;;;;;;;;;4959344;28;20449;-70
2023/05/26 11:38:36;;;;;;;8.53;5.57;;;;;;;;;;4957397;28;21100;-70
2023/05/26 11:41:03;;;;;;;5.40;5.00;;;;;;;;;;4961901;28;20556;-71
2023/05/26 11:43:29;;;;;;;10.93;5.00;;;;;;;;;;4960033;28;20506;-70
2023/05/26 11:45:58;;;;;;;7.50;5.67;;;;;;;;;;4960049;28;20457;-69
2023/05/26 11:48:24;;;;;;;6.87;4.90;;;;;;;;;;4959338;28;20453;-71
2023/05/26 11:50:50;;;;;;;5.30;4.93;;;;;;;;;;4958512;28;20534;-69
2023/05/26 11:53:17;;;;;;;5.10;4.80;;;;;;;;;;4954048;28;20455;-70
2023/05/26 11:55:45;;;;;;;6.40;5.60;;;;;;;;;;4958760;28;20524;-71
2023/05/26 11:58:13;;;;;;;8.90;5.30;;;;;;;;;;4961932;28;20847;-70
2023/05/26 12:00:40;;;;;;;10.03;4.53;;;;;;;;;;4958116;28;20529;-70
2023/05/26 12:03:16;;;;;;;6.33;5.07;;;;;;;;;;4958439;28;20439;-70
2023/05/26 12:05:42;;;;;;;12.53;6.37;;;;;;;;;;4958265;28;21048;-71
2023/05/26 12:08:09;;;;;;;6.47;5.30;;;;;;;;;;4958573;28;20946;-70
2023/05/26 12:10:38;;;;;;;5.47;4.50;;;;;;;;;;4958148;28;20454;-70
2023/05/26 12:13:04;;;;;;;6.27;4.40;;;;;;;;;;4958006;28;21106;-72
2023/05/26 12:15:30;;;;;;;7.03;4.77;;;;;;;;;;4958322;28;20454;-70
2023/05/26 12:17:57;;;;;;;5.30;4.63;;;;;;;;;;4957491;28;20498;-70
2023/05/26 12:20:25;;;;;;;5.40;4.90;;;;;;;;;;4959843;28;20464;-61
2023/05/26 12:22:51;;;;;;;5.53;5.05;;;;;;;;;;4957083;28;20534;-70
2023/05/26 12:25:24;;;;;;;6.43;5.13;;;;;;;;;;4958603;28;20533;-70
2023/05/26 12:27:50;;;;;;;7.50;4.13;;;;;;;;;;4956513;28;20459;-71
2023/05/26 12:30:18;;;;;;;7.73;5.10;;;;;;;;;;4956673;28;20531;-71
2023/05/26 12:32:44;;;;;;;7.30;5.73;;;;;;;;;;4955922;28;20513;-71
2023/05/26 12:35:10;;;;;;;5.10;4.70;;;;;;;;;;4956591;28;20438;-71
2023/05/26 12:37:36;;;;;;;5.93;4.87;;;;;;;;;;4958146;28;20456;-70
2023/05/26 12:40:02;;;;;;;6.30;5.70;;;;;;;;;;4959030;28;20446;-70
2023/05/26 12:42:28;;;;;;;5.30;4.80;;;;;;;;;;4957961;28;21910;-70
2023/05/26 12:44:54;;;;;;;11.63;5.47;;;;;;;;;;4956115;28;20454;-71
2023/05/26 12:47:20;;;;;;;7.30;5.17;;;;;;;;;;4965946;28;20457;-70
2023/05/26 12:49:46;;;;;;;6.40;4.17;;;;;;;;;;4966193;28;20414;-70
2023/05/26 12:52:12;;;;;;;12.20;5.27;;;;;;;;;;4965609;28;20493;-71
2023/05/26 12:54:38;;;;;;;5.20;4.80;;;;;;;;;;4966190;28;20492;-70
2023/05/26 12:57:04;;;;;;;6.43;5.83;;;;;;;;;;4964804;28;20441;-70
2023/05/26 12:59:33;;;;;;;9.97;5.63;;;;;;;;;;4966190;28;20922;-71
2023/05/26 13:01:59;;;;;;;5.43;5.13;;;;;;;;;;4964694;28;20430;-71
2023/05/26 13:04:25;;;;;;;8.53;5.13;;;;;;;;;;4966281;28;20453;-71
2023/05/26 13:06:51;;;;;;;6.27;5.70;;;;;;;;;;4965546;28;20973;-71
2023/05/26 13:09:17;;;;;;;8.40;4.77;;;;;;;;;;4966357;28;20433;-70
2023/05/26 13:11:43;;;;;;;7.77;5.10;;;;;;;;;;4965024;28;20474;-70
2023/05/26 13:14:10;;;;;;;8.33;5.47;;;;;;;;;;4965231;28;20536;-70
2023/05/26 13:16:40;;;;;;;6.60;5.60;;;;;;;;;;4965768;28;20465;-70
2023/05/26 13:19:06;;;;;;;5.30;4.80;;;;;;;;;;4960675;28;20478;-71
2023/05/26 13:21:31;;;;;;;5.00;4.70;;;;;;;;;;4965239;28;20945;-70
2023/05/26 13:23:59;;;;;;;4.43;4.03;;;;;;;;;;4958675;28;20457;-70
2023/05/26 13:26:25;;;;;;;6.60;4.37;;;;;;;;;;4959550;28;20437;-70
2023/05/26 13:28:51;;;;;;;4.90;4.53;;;;;;;;;;4961235;28;20476;-70
2023/05/26 13:31:18;;;;;;;8.23;5.20;;;;;;;;;;4959855;28;20573;-70
2023/05/26 13:33:44;;;;;;;11.40;4.60;;;;;;;;;;4959019;28;20483;-70
2023/05/26 13:36:10;;;;;;;8.87;5.13;;;;;;;;;;4959095;28;21149;-70
2023/05/26 13:38:36;;;;;;;6.23;4.83;;;;;;;;;;4959408;28;20505;-70
2023/05/26 13:41:02;;;;;;;9.90;5.87;;;;;;;;;;4961527;28;20606;-70
2023/05/26 13:43:28;;;;;;;4.43;4.23;;;;;;;;;;4962015;28;20450;-71
2023/05/26 13:45:54;;;;;;;7.90;6.00;;;;;;;;;;4963576;28;20453;-70
2023/05/26 13:48:21;;;;;;;5.10;4.83;;;;;;;;;;4964133;28;20871;-70
2023/05/26 13:50:47;;;;;;;14.23;5.40;;;;;;;;;;4964393;28;20429;-70
2023/05/26 13:53:14;;;;;;;4.40;3.97;;;;;;;;;;4963460;28;20485;-67
2023/05/26 13:55:41;;;;;;;6.13;4.83;;;;;;;;;;4964663;28;20434;-67
2023/05/26 13:58:07;;;;;;;4.70;4.40;;;;;;;;;;4964674;28;20437;-66
2023/05/26 14:00:34;;;;;;;7.13;4.47;;;;;;;;;;4964695;28;20515;-71
2023/05/26 14:03:00;;;;;;;11.60;4.83;;;;;;;;;;4963419;28;20450;-70
2023/05/26 14:05:26;;;;;;;6.77;5.10;;;;;;;;;;4964621;28;20977;-70
2023/05/26 14:07:52;;;;;;;8.73;4.87;;;;;;;;;;4962742;28;20462;-71
2023/05/26 14:10:18;;;;;;;5.07;4.67;;;;;;;;;;4963739;28;20456;-71
2023/05/26 14:12:45;;;;;;;4.30;4.10;;;;;;;;;;4961672;28;20592;-71
2023/05/26 14:15:11;;;;;;;6.97;4.33;;;;;;;;;;4963394;28;20442;-69
2023/05/26 14:17:37;;;;;;;6.90;5.33;;;;;;;;;;4957478;28;21029;-71
2023/05/26 14:20:03;;;;;;;4.87;4.60;;;;;;;;;;4963650;28;20438;-70
2023/05/26 14:22:29;;;;;;;4.30;4.10;;;;;;;;;;4963733;28;20442;-70
2023/05/26 14:24:55;;;;;;;5.50;5.00;;;;;;;;;;4964011;28;21555;-69
2023/05/26 14:27:21;;;;;;;6.23;4.90;;;;;;;;;;4964026;28;20425;-70
2023/05/26 14:29:47;;;;;;;13.90;4.13;;;;;;;;;;4963743;28;20580;-70
2023/05/26 14:32:13;;;;;;;7.43;4.33;;;;;;;;;;4963720;28;20497;-70
2023/05/26 14:34:39;;;;;;;5.63;4.70;;;;;;;;;;4964415;28;20426;-70
2023/05/26 14:37:05;;;;;;;8.93;4.33;;;;;;;;;;4963994;28;20537;-70
2023/05/26 14:39:31;;;;;;;7.50;3.80;;;;;;;;;;4963369;28;21757;-69